sensor_id;sensor_type;location;lat;lon;timestamp;P1;durP1;ratioP1;P2;durP2;ratioP2
68938;SDS011;59064;45.294;11.816;2023-07-16T00:00:08;11.60;;;7.10;;
68938;SDS011;59064;45.294;11.816;2023-07-16T00:02:38;12.60;;;7.80;;
68938;SDS011;59064;45.294;11.816;2023-07-16T00:05:04;12.20;;;7.50;;
68938;SDS011;59064;45.294;11.816;2023-07-16T00:07:31;10.40;;;7.50;;
68938;SDS011;59064;45.294;11.816;2023-07-16T00:09:56;10.20;;;7.50;;
68938;SDS011;59064;45.294;11.816;2023-07-16T00:12:22;14.50;;;7.90;;
68938;SDS011;59064;45.294;11.816;2023-07-16T00:14:48;14.00;;;7.80;;
68938;SDS011;59064;45.294;11.816;2023-07-16T00:17:13;11.40;;;7.10;;
68938;SDS011;59064;45.294;11.816;2023-07-16T00:19:39;13.60;;;8.40;;
68938;SDS011;59064;45.294;11.816;2023-07-16T00:22:05;11.80;;;7.90;;
68938;SDS011;59064;45.294;11.816;2023-07-16T00:24:31;11.60;;;7.90;;
68938;SDS011;59064;45.294;11.816;2023-07-16T00:26:57;13.80;;;7.70;;
68938;SDS011;59064;45.294;11.816;2023-07-16T00:29:23;14.40;;;7.90;;
68938;SDS011;59064;45.294;11.816;2023-07-16T00:31:48;16.20;;;8.70;;
68938;SDS011;59064;45.294;11.816;2023-07-16T00:34:14;12.90;;;8.20;;
68938;SDS011;59064;45.294;11.816;2023-07-16T00:36:39;12.70;;;9.00;;
68938;SDS011;59064;45.294;11.816;2023-07-16T00:39:05;11.90;;;7.50;;
68938;SDS011;59064;45.294;11.816;2023-07-16T00:41:31;12.60;;;8.40;;
68938;SDS011;59064;45.294;11.816;2023-07-16T00:43:56;15.60;;;8.40;;
68938;SDS011;59064;45.294;11.816;2023-07-16T00:46:23;16.60;;;8.60;;
68938;SDS011;59064;45.294;11.816;2023-07-16T00:48:49;12.50;;;7.90;;
68938;SDS011;59064;45.294;11.816;2023-07-16T00:51:15;13.40;;;9.00;;
68938;SDS011;59064;45.294;11.816;2023-07-16T00:53:42;14.20;;;8.70;;
68938;SDS011;59064;45.294;11.816;2023-07-16T00:56:09;14.90;;;9.40;;
68938;SDS011;59064;45.294;11.816;2023-07-16T00:58:35;17.60;;;9.80;;
68938;SDS011;59064;45.294;11.816;2023-07-16T01:01:01;15.00;;;10.00;;
68938;SDS011;59064;45.294;11.816;2023-07-16T01:03:27;14.70;;;9.30;;
68938;SDS011;59064;45.294;11.816;2023-07-16T01:05:57;12.50;;;9.60;;
68938;SDS011;59064;45.294;11.816;2023-07-16T01:08:41;14.00;;;9.80;;
68938;SDS011;59064;45.294;11.816;2023-07-16T01:11:12;14.60;;;10.20;;
68938;SDS011;59064;45.294;11.816;2023-07-16T01:13:38;16.00;;;10.80;;
68938;SDS011;59064;45.294;11.816;2023-07-16T01:16:06;16.90;;;10.10;;
68938;SDS011;59064;45.294;11.816;2023-07-16T01:18:31;12.50;;;10.00;;
68938;SDS011;59064;45.294;11.816;2023-07-16T01:20:57;15.50;;;11.70;;
68938;SDS011;59064;45.294;11.816;2023-07-16T01:26:44;18.60;;;12.70;;
68938;SDS011;59064;45.294;11.816;2023-07-16T01:29:49;18.10;;;11.80;;
68938;SDS011;59064;45.294;11.816;2023-07-16T01:32:18;14.70;;;10.10;;
68938;SDS011;59064;45.294;11.816;2023-07-16T01:34:46;18.80;;;12.10;;
68938;SDS011;59064;45.294;11.816;2023-07-16T01:37:12;15.50;;;10.80;;
68938;SDS011;59064;45.294;11.816;2023-07-16T01:39:38;21.30;;;13.40;;
68938;SDS011;59064;45.294;11.816;2023-07-16T01:42:04;14.10;;;10.40;;
68938;SDS011;59064;45.294;11.816;2023-07-16T01:44:30;20.10;;;12.50;;
68938;SDS011;59064;45.294;11.816;2023-07-16T01:49:34;18.80;;;12.40;;
68938;SDS011;59064;45.294;11.816;2023-07-16T01:52:01;22.70;;;14.70;;
68938;SDS011;59064;45.294;11.816;2023-07-16T01:54:28;20.10;;;14.00;;
68938;SDS011;59064;45.294;11.816;2023-07-16T01:56:54;20.60;;;14.20;;
68938;SDS011;59064;45.294;11.816;2023-07-16T01:59:20;22.10;;;14.70;;
68938;SDS011;59064;45.294;11.816;2023-07-16T02:01:45;21.10;;;14.40;;
68938;SDS011;59064;45.294;11.816;2023-07-16T02:04:11;19.60;;;14.00;;
68938;SDS011;59064;45.294;11.816;2023-07-16T02:06:36;18.80;;;13.80;;
68938;SDS011;59064;45.294;11.816;2023-07-16T02:09:02;16.40;;;12.40;;
68938;SDS011;59064;45.294;11.816;2023-07-16T02:11:28;22.90;;;15.10;;
68938;SDS011;59064;45.294;11.816;2023-07-16T02:13:54;16.50;;;12.50;;
68938;SDS011;59064;45.294;11.816;2023-07-16T02:16:19;15.90;;;13.10;;
68938;SDS011;59064;45.294;11.816;2023-07-16T02:18:45;20.70;;;15.60;;
68938;SDS011;59064;45.294;11.816;2023-07-16T02:21:10;19.80;;;13.70;;
68938;SDS011;59064;45.294;11.816;2023-07-16T02:23:36;18.70;;;13.80;;
68938;SDS011;59064;45.294;11.816;2023-07-16T02:26:02;17.20;;;13.40;;
68938;SDS011;59064;45.294;11.816;2023-07-16T02:28:27;19.90;;;14.40;;
68938;SDS011;59064;45.294;11.816;2023-07-16T02:30:53;21.50;;;15.10;;
68938;SDS011;59064;45.294;11.816;2023-07-16T02:33:19;17.90;;;13.40;;
68938;SDS011;59064;45.294;11.816;2023-07-16T02:35:48;17.90;;;12.20;;
68938;SDS011;59064;45.294;11.816;2023-07-16T02:38:15;16.80;;;12.30;;
68938;SDS011;59064;45.294;11.816;2023-07-16T02:40:47;18.50;;;13.50;;
68938;SDS011;59064;45.294;11.816;2023-07-16T02:43:13;16.90;;;12.10;;
68938;SDS011;59064;45.294;11.816;2023-07-16T02:45:40;18.00;;;12.90;;
68938;SDS011;59064;45.294;11.816;2023-07-16T02:48:07;16.10;;;12.10;;
68938;SDS011;59064;45.294;11.816;2023-07-16T02:50:34;20.10;;;12.80;;
68938;SDS011;59064;45.294;11.816;2023-07-16T02:53:01;18.20;;;14.40;;
68938;SDS011;59064;45.294;11.816;2023-07-16T02:55:28;19.50;;;14.10;;
68938;SDS011;59064;45.294;11.816;2023-07-16T02:57:53;20.80;;;14.90;;
68938;SDS011;59064;45.294;11.816;2023-07-16T03:00:19;23.10;;;17.00;;
68938;SDS011;59064;45.294;11.816;2023-07-16T03:02:44;20.70;;;15.40;;
68938;SDS011;59064;45.294;11.816;2023-07-16T03:05:10;21.30;;;14.50;;
68938;SDS011;59064;45.294;11.816;2023-07-16T03:07:35;26.50;;;16.50;;
68938;SDS011;59064;45.294;11.816;2023-07-16T03:10:01;25.30;;;15.70;;
68938;SDS011;59064;45.294;11.816;2023-07-16T03:12:27;20.80;;;16.00;;
68938;SDS011;59064;45.294;11.816;2023-07-16T03:14:52;21.00;;;15.90;;
68938;SDS011;59064;45.294;11.816;2023-07-16T03:17:20;24.60;;;17.50;;
68938;SDS011;59064;45.294;11.816;2023-07-16T03:19:47;20.30;;;13.80;;
68938;SDS011;59064;45.294;11.816;2023-07-16T03:22:13;22.20;;;14.10;;
68938;SDS011;59064;45.294;11.816;2023-07-16T03:24:39;27.70;;;19.20;;
68938;SDS011;59064;45.294;11.816;2023-07-16T03:27:06;25.20;;;18.80;;
68938;SDS011;59064;45.294;11.816;2023-07-16T03:29:35;23.00;;;16.90;;
68938;SDS011;59064;45.294;11.816;2023-07-16T03:32:02;25.10;;;18.80;;
68938;SDS011;59064;45.294;11.816;2023-07-16T03:34:28;31.10;;;20.20;;
68938;SDS011;59064;45.294;11.816;2023-07-16T03:36:53;29.90;;;21.30;;
68938;SDS011;59064;45.294;11.816;2023-07-16T03:39:19;23.90;;;17.00;;
68938;SDS011;59064;45.294;11.816;2023-07-16T03:41:45;28.30;;;20.40;;
68938;SDS011;59064;45.294;11.816;2023-07-16T03:44:10;29.80;;;21.00;;
68938;SDS011;59064;45.294;11.816;2023-07-16T03:46:36;25.50;;;19.20;;
68938;SDS011;59064;45.294;11.816;2023-07-16T03:49:01;28.60;;;20.60;;
68938;SDS011;59064;45.294;11.816;2023-07-16T03:51:27;26.40;;;20.20;;
68938;SDS011;59064;45.294;11.816;2023-07-16T03:53:52;25.70;;;19.60;;
68938;SDS011;59064;45.294;11.816;2023-07-16T03:56:18;24.90;;;19.30;;
68938;SDS011;59064;45.294;11.816;2023-07-16T03:58:43;24.30;;;18.20;;
68938;SDS011;59064;45.294;11.816;2023-07-16T04:01:09;22.90;;;17.90;;
68938;SDS011;59064;45.294;11.816;2023-07-16T04:03:35;27.10;;;18.70;;
68938;SDS011;59064;45.294;11.816;2023-07-16T04:06:10;28.80;;;19.70;;
68938;SDS011;59064;45.294;11.816;2023-07-16T04:08:36;26.70;;;19.10;;
68938;SDS011;59064;45.294;11.816;2023-07-16T04:11:05;24.50;;;18.70;;
68938;SDS011;59064;45.294;11.816;2023-07-16T04:13:31;28.40;;;19.60;;
68938;SDS011;59064;45.294;11.816;2023-07-16T04:15:57;28.00;;;18.60;;
68938;SDS011;59064;45.294;11.816;2023-07-16T04:18:23;26.40;;;21.00;;
68938;SDS011;59064;45.294;11.816;2023-07-16T04:20:50;30.00;;;18.70;;
68938;SDS011;59064;45.294;11.816;2023-07-16T04:23:15;26.60;;;18.90;;
68938;SDS011;59064;45.294;11.816;2023-07-16T04:25:41;25.30;;;18.80;;
68938;SDS011;59064;45.294;11.816;2023-07-16T04:28:07;24.40;;;18.50;;
68938;SDS011;59064;45.294;11.816;2023-07-16T04:30:32;25.00;;;18.80;;
68938;SDS011;59064;45.294;11.816;2023-07-16T04:32:58;29.00;;;18.80;;
68938;SDS011;59064;45.294;11.816;2023-07-16T04:35:24;24.80;;;18.80;;
68938;SDS011;59064;45.294;11.816;2023-07-16T04:37:49;27.20;;;18.80;;
68938;SDS011;59064;45.294;11.816;2023-07-16T04:40:15;24.90;;;18.10;;
68938;SDS011;59064;45.294;11.816;2023-07-16T04:42:40;26.40;;;18.10;;
68938;SDS011;59064;45.294;11.816;2023-07-16T04:45:06;22.90;;;17.70;;
68938;SDS011;59064;45.294;11.816;2023-07-16T04:47:32;21.70;;;15.70;;
68938;SDS011;59064;45.294;11.816;2023-07-16T04:49:58;24.70;;;16.60;;
68938;SDS011;59064;45.294;11.816;2023-07-16T04:52:24;20.90;;;15.40;;
68938;SDS011;59064;45.294;11.816;2023-07-16T04:54:50;25.70;;;17.40;;
68938;SDS011;59064;45.294;11.816;2023-07-16T04:57:15;23.50;;;15.60;;
68938;SDS011;59064;45.294;11.816;2023-07-16T04:59:41;21.90;;;16.90;;
68938;SDS011;59064;45.294;11.816;2023-07-16T05:02:07;24.80;;;17.80;;
68938;SDS011;59064;45.294;11.816;2023-07-16T05:04:33;24.10;;;16.40;;
68938;SDS011;59064;45.294;11.816;2023-07-16T05:07:01;26.60;;;17.40;;
68938;SDS011;59064;45.294;11.816;2023-07-16T05:09:27;20.90;;;14.80;;
68938;SDS011;59064;45.294;11.816;2023-07-16T05:11:53;18.80;;;14.00;;
68938;SDS011;59064;45.294;11.816;2023-07-16T05:14:19;21.10;;;15.00;;
68938;SDS011;59064;45.294;11.816;2023-07-16T05:16:44;22.60;;;15.70;;
68938;SDS011;59064;45.294;11.816;2023-07-16T05:19:10;24.00;;;17.00;;
68938;SDS011;59064;45.294;11.816;2023-07-16T05:21:36;22.20;;;17.00;;
68938;SDS011;59064;45.294;11.816;2023-07-16T05:24:01;25.60;;;16.50;;
68938;SDS011;59064;45.294;11.816;2023-07-16T05:26:28;23.20;;;15.60;;
68938;SDS011;59064;45.294;11.816;2023-07-16T05:28:53;21.60;;;16.30;;
68938;SDS011;59064;45.294;11.816;2023-07-16T05:31:19;24.70;;;16.60;;
68938;SDS011;59064;45.294;11.816;2023-07-16T05:33:44;21.70;;;15.30;;
68938;SDS011;59064;45.294;11.816;2023-07-16T05:36:10;17.80;;;13.30;;
68938;SDS011;59064;45.294;11.816;2023-07-16T05:38:35;23.80;;;16.00;;
68938;SDS011;59064;45.294;11.816;2023-07-16T05:41:02;21.60;;;14.90;;
68938;SDS011;59064;45.294;11.816;2023-07-16T05:43:28;23.50;;;14.60;;
68938;SDS011;59064;45.294;11.816;2023-07-16T05:45:54;19.70;;;13.80;;
68938;SDS011;59064;45.294;11.816;2023-07-16T05:48:20;19.80;;;14.20;;
68938;SDS011;59064;45.294;11.816;2023-07-16T05:50:46;18.00;;;12.00;;
68938;SDS011;59064;45.294;11.816;2023-07-16T05:53:11;19.60;;;13.60;;
68938;SDS011;59064;45.294;11.816;2023-07-16T05:55:42;29.30;;;17.60;;
68938;SDS011;59064;45.294;11.816;2023-07-16T05:58:08;21.80;;;14.20;;
68938;SDS011;59064;45.294;11.816;2023-07-16T06:00:35;21.10;;;15.10;;
68938;SDS011;59064;45.294;11.816;2023-07-16T06:03:02;22.70;;;15.80;;
68938;SDS011;59064;45.294;11.816;2023-07-16T06:05:28;19.90;;;13.20;;
68938;SDS011;59064;45.294;11.816;2023-07-16T06:07:57;18.10;;;10.70;;
68938;SDS011;59064;45.294;11.816;2023-07-16T06:10:23;18.10;;;12.60;;
68938;SDS011;59064;45.294;11.816;2023-07-16T06:12:49;21.10;;;13.20;;
68938;SDS011;59064;45.294;11.816;2023-07-16T06:15:14;15.70;;;13.00;;
68938;SDS011;59064;45.294;11.816;2023-07-16T06:17:40;20.60;;;15.80;;
68938;SDS011;59064;45.294;11.816;2023-07-16T06:20:06;16.60;;;11.80;;
68938;SDS011;59064;45.294;11.816;2023-07-16T06:22:34;20.10;;;13.90;;
68938;SDS011;59064;45.294;11.816;2023-07-16T06:25:00;15.90;;;12.60;;
68938;SDS011;59064;45.294;11.816;2023-07-16T06:27:26;18.20;;;11.00;;
68938;SDS011;59064;45.294;11.816;2023-07-16T06:29:51;15.80;;;10.60;;
68938;SDS011;59064;45.294;11.816;2023-07-16T06:32:17;17.50;;;10.40;;
68938;SDS011;59064;45.294;11.816;2023-07-16T06:34:43;16.50;;;11.40;;
68938;SDS011;59064;45.294;11.816;2023-07-16T06:37:08;14.90;;;10.30;;
68938;SDS011;59064;45.294;11.816;2023-07-16T06:39:34;14.70;;;11.00;;
68938;SDS011;59064;45.294;11.816;2023-07-16T06:41:59;16.10;;;11.20;;
68938;SDS011;59064;45.294;11.816;2023-07-16T06:44:25;19.00;;;12.70;;
68938;SDS011;59064;45.294;11.816;2023-07-16T06:46:51;14.10;;;9.10;;
68938;SDS011;59064;45.294;11.816;2023-07-16T06:49:16;18.40;;;11.30;;
68938;SDS011;59064;45.294;11.816;2023-07-16T06:51:42;16.40;;;9.90;;
68938;SDS011;59064;45.294;11.816;2023-07-16T06:54:08;16.30;;;11.00;;
68938;SDS011;59064;45.294;11.816;2023-07-16T06:56:33;14.60;;;9.10;;
68938;SDS011;59064;45.294;11.816;2023-07-16T06:58:59;13.20;;;7.80;;
68938;SDS011;59064;45.294;11.816;2023-07-16T07:01:25;14.30;;;9.30;;
68938;SDS011;59064;45.294;11.816;2023-07-16T07:03:53;17.70;;;10.80;;
68938;SDS011;59064;45.294;11.816;2023-07-16T07:06:19;19.00;;;9.00;;
68938;SDS011;59064;45.294;11.816;2023-07-16T07:08:44;15.30;;;9.20;;
68938;SDS011;59064;45.294;11.816;2023-07-16T07:11:10;12.80;;;8.40;;
68938;SDS011;59064;45.294;11.816;2023-07-16T07:13:36;13.80;;;7.00;;
68938;SDS011;59064;45.294;11.816;2023-07-16T07:16:01;13.10;;;7.20;;
68938;SDS011;59064;45.294;11.816;2023-07-16T07:18:28;14.10;;;7.20;;
68938;SDS011;59064;45.294;11.816;2023-07-16T07:20:53;10.90;;;7.10;;
68938;SDS011;59064;45.294;11.816;2023-07-16T07:23:19;16.60;;;8.60;;
68938;SDS011;59064;45.294;11.816;2023-07-16T07:25:51;13.90;;;8.10;;
68938;SDS011;59064;45.294;11.816;2023-07-16T07:28:18;11.20;;;8.10;;
68938;SDS011;59064;45.294;11.816;2023-07-16T07:30:45;12.90;;;7.20;;
68938;SDS011;59064;45.294;11.816;2023-07-16T07:33:11;11.10;;;8.40;;
68938;SDS011;59064;45.294;11.816;2023-07-16T07:35:37;11.30;;;6.70;;
68938;SDS011;59064;45.294;11.816;2023-07-16T07:38:03;17.10;;;8.70;;
68938;SDS011;59064;45.294;11.816;2023-07-16T07:40:28;13.20;;;7.70;;
68938;SDS011;59064;45.294;11.816;2023-07-16T07:42:54;13.40;;;7.30;;
68938;SDS011;59064;45.294;11.816;2023-07-16T07:45:20;13.70;;;7.40;;
68938;SDS011;59064;45.294;11.816;2023-07-16T07:47:45;12.30;;;6.60;;
68938;SDS011;59064;45.294;11.816;2023-07-16T07:50:11;11.30;;;6.90;;
68938;SDS011;59064;45.294;11.816;2023-07-16T07:52:36;10.50;;;6.50;;
68938;SDS011;59064;45.294;11.816;2023-07-16T07:55:03;13.10;;;6.70;;
68938;SDS011;59064;45.294;11.816;2023-07-16T07:57:29;11.50;;;6.00;;
68938;SDS011;59064;45.294;11.816;2023-07-16T07:59:55;10.80;;;6.60;;
68938;SDS011;59064;45.294;11.816;2023-07-16T08:02:24;10.40;;;6.10;;
68938;SDS011;59064;45.294;11.816;2023-07-16T08:04:53;10.60;;;5.20;;
68938;SDS011;59064;45.294;11.816;2023-07-16T08:07:19;11.50;;;6.70;;
68938;SDS011;59064;45.294;11.816;2023-07-16T08:09:46;12.60;;;5.80;;
68938;SDS011;59064;45.294;11.816;2023-07-16T08:12:12;14.00;;;6.80;;
68938;SDS011;59064;45.294;11.816;2023-07-16T08:14:38;9.30;;;5.80;;
68938;SDS011;59064;45.294;11.816;2023-07-16T08:17:04;10.00;;;5.50;;
68938;SDS011;59064;45.294;11.816;2023-07-16T08:19:30;12.90;;;5.90;;
68938;SDS011;59064;45.294;11.816;2023-07-16T08:21:55;12.10;;;6.40;;
68938;SDS011;59064;45.294;11.816;2023-07-16T08:24:21;12.60;;;6.80;;
68938;SDS011;59064;45.294;11.816;2023-07-16T08:26:47;11.70;;;6.80;;
68938;SDS011;59064;45.294;11.816;2023-07-16T08:29:12;10.10;;;5.80;;
68938;SDS011;59064;45.294;11.816;2023-07-16T08:31:38;13.20;;;6.80;;
68938;SDS011;59064;45.294;11.816;2023-07-16T08:34:03;12.20;;;6.10;;
68938;SDS011;59064;45.294;11.816;2023-07-16T08:36:29;10.90;;;6.10;;
68938;SDS011;59064;45.294;11.816;2023-07-16T08:38:54;11.20;;;6.00;;
68938;SDS011;59064;45.294;11.816;2023-07-16T08:41:20;12.20;;;6.10;;
68938;SDS011;59064;45.294;11.816;2023-07-16T08:43:46;13.60;;;7.30;;
68938;SDS011;59064;45.294;11.816;2023-07-16T08:46:17;9.20;;;5.60;;
68938;SDS011;59064;45.294;11.816;2023-07-16T08:48:44;8.70;;;6.00;;
68938;SDS011;59064;45.294;11.816;2023-07-16T08:51:10;13.40;;;7.30;;
68938;SDS011;59064;45.294;11.816;2023-07-16T08:53:37;11.10;;;6.30;;
68938;SDS011;59064;45.294;11.816;2023-07-16T08:56:03;9.90;;;6.50;;
68938;SDS011;59064;45.294;11.816;2023-07-16T08:58:30;12.50;;;7.00;;
68938;SDS011;59064;45.294;11.816;2023-07-16T09:00:57;12.70;;;6.40;;
68938;SDS011;59064;45.294;11.816;2023-07-16T09:03:24;12.30;;;6.30;;
68938;SDS011;59064;45.294;11.816;2023-07-16T09:05:50;9.50;;;5.50;;
68938;SDS011;59064;45.294;11.816;2023-07-16T09:08:15;9.50;;;5.80;;
68938;SDS011;59064;45.294;11.816;2023-07-16T09:10:42;10.80;;;6.00;;
68938;SDS011;59064;45.294;11.816;2023-07-16T09:13:09;12.30;;;6.50;;
68938;SDS011;59064;45.294;11.816;2023-07-16T09:15:35;12.10;;;6.10;;
68938;SDS011;59064;45.294;11.816;2023-07-16T09:18:01;10.50;;;6.50;;
68938;SDS011;59064;45.294;11.816;2023-07-16T09:20:27;13.80;;;6.10;;
68938;SDS011;59064;45.294;11.816;2023-07-16T09:22:58;13.00;;;7.10;;
68938;SDS011;59064;45.294;11.816;2023-07-16T09:25:31;11.50;;;6.80;;
68938;SDS011;59064;45.294;11.816;2023-07-16T09:28:04;8.70;;;5.60;;
68938;SDS011;59064;45.294;11.816;2023-07-16T09:30:34;12.50;;;6.60;;
68938;SDS011;59064;45.294;11.816;2023-07-16T09:33:19;12.40;;;5.80;;
68938;SDS011;59064;45.294;11.816;2023-07-16T09:35:50;12.70;;;6.30;;
68938;SDS011;59064;45.294;11.816;2023-07-16T09:38:16;8.30;;;5.20;;
68938;SDS011;59064;45.294;11.816;2023-07-16T09:40:43;10.70;;;5.60;;
68938;SDS011;59064;45.294;11.816;2023-07-16T09:43:09;9.00;;;5.40;;
68938;SDS011;59064;45.294;11.816;2023-07-16T09:45:36;9.60;;;5.40;;
68938;SDS011;59064;45.294;11.816;2023-07-16T09:48:05;10.10;;;5.40;;
68938;SDS011;59064;45.294;11.816;2023-07-16T09:50:35;8.20;;;4.50;;
68938;SDS011;59064;45.294;11.816;2023-07-16T09:53:03;10.00;;;5.20;;
68938;SDS011;59064;45.294;11.816;2023-07-16T09:55:31;12.30;;;5.30;;
68938;SDS011;59064;45.294;11.816;2023-07-16T09:57:59;8.50;;;4.70;;
68938;SDS011;59064;45.294;11.816;2023-07-16T10:00:27;12.00;;;5.30;;
68938;SDS011;59064;45.294;11.816;2023-07-16T10:02:53;9.10;;;4.80;;
68938;SDS011;59064;45.294;11.816;2023-07-16T10:07:56;8.20;;;5.50;;
68938;SDS011;59064;45.294;11.816;2023-07-16T10:10:46;11.00;;;4.60;;
68938;SDS011;59064;45.294;11.816;2023-07-16T10:13:14;10.50;;;5.50;;
68938;SDS011;59064;45.294;11.816;2023-07-16T10:16:00;13.00;;;5.60;;
68938;SDS011;59064;45.294;11.816;2023-07-16T10:18:32;9.60;;;5.00;;
68938;SDS011;59064;45.294;11.816;2023-07-16T10:21:05;11.20;;;5.30;;
68938;SDS011;59064;45.294;11.816;2023-07-16T10:23:43;11.60;;;4.80;;
68938;SDS011;59064;45.294;11.816;2023-07-16T10:26:10;9.40;;;4.80;;
68938;SDS011;59064;45.294;11.816;2023-07-16T10:28:38;10.30;;;4.80;;
68938;SDS011;59064;45.294;11.816;2023-07-16T10:31:05;11.50;;;5.20;;
68938;SDS011;59064;45.294;11.816;2023-07-16T10:33:33;8.80;;;4.80;;
68938;SDS011;59064;45.294;11.816;2023-07-16T10:35:59;10.70;;;4.80;;
68938;SDS011;59064;45.294;11.816;2023-07-16T10:38:25;14.90;;;8.40;;
68938;SDS011;59064;45.294;11.816;2023-07-16T10:40:51;11.70;;;8.20;;
68938;SDS011;59064;45.294;11.816;2023-07-16T10:43:17;10.70;;;5.70;;
68938;SDS011;59064;45.294;11.816;2023-07-16T10:45:43;8.90;;;4.60;;
68938;SDS011;59064;45.294;11.816;2023-07-16T10:48:12;12.00;;;5.10;;
68938;SDS011;59064;45.294;11.816;2023-07-16T10:50:37;12.50;;;6.30;;
68938;SDS011;59064;45.294;11.816;2023-07-16T10:53:03;7.50;;;4.80;;
68938;SDS011;59064;45.294;11.816;2023-07-16T10:55:29;8.20;;;4.60;;
68938;SDS011;59064;45.294;11.816;2023-07-16T10:57:56;10.10;;;5.50;;
68938;SDS011;59064;45.294;11.816;2023-07-16T11:00:23;7.90;;;4.40;;
68938;SDS011;59064;45.294;11.816;2023-07-16T11:02:50;8.40;;;5.00;;
68938;SDS011;59064;45.294;11.816;2023-07-16T11:05:17;9.70;;;4.30;;
68938;SDS011;59064;45.294;11.816;2023-07-16T11:07:45;8.70;;;4.60;;
68938;SDS011;59064;45.294;11.816;2023-07-16T11:10:11;8.80;;;4.70;;
68938;SDS011;59064;45.294;11.816;2023-07-16T11:12:38;11.20;;;5.10;;
68938;SDS011;59064;45.294;11.816;2023-07-16T11:15:03;10.00;;;4.60;;
68938;SDS011;59064;45.294;11.816;2023-07-16T11:17:29;10.80;;;4.30;;
68938;SDS011;59064;45.294;11.816;2023-07-16T11:19:55;9.90;;;4.10;;
68938;SDS011;59064;45.294;11.816;2023-07-16T11:22:27;8.90;;;4.50;;
68938;SDS011;59064;45.294;11.816;2023-07-16T11:24:53;9.70;;;4.40;;
68938;SDS011;59064;45.294;11.816;2023-07-16T11:27:27;9.50;;;5.00;;
68938;SDS011;59064;45.294;11.816;2023-07-16T11:29:56;9.20;;;4.20;;
68938;SDS011;59064;45.294;11.816;2023-07-16T11:35:05;7.10;;;4.40;;
68938;SDS011;59064;45.294;11.816;2023-07-16T11:37:33;8.00;;;4.30;;
68938;SDS011;59064;45.294;11.816;2023-07-16T11:40:04;12.10;;;4.30;;
68938;SDS011;59064;45.294;11.816;2023-07-16T11:42:38;7.20;;;4.40;;
68938;SDS011;59064;45.294;11.816;2023-07-16T11:45:15;8.70;;;4.10;;
68938;SDS011;59064;45.294;11.816;2023-07-16T11:47:53;10.50;;;4.40;;
68938;SDS011;59064;45.294;11.816;2023-07-16T11:50:19;8.20;;;4.60;;
68938;SDS011;59064;45.294;11.816;2023-07-16T11:52:52;10.20;;;4.50;;
68938;SDS011;59064;45.294;11.816;2023-07-16T11:55:19;11.00;;;4.80;;
68938;SDS011;59064;45.294;11.816;2023-07-16T11:57:44;10.50;;;4.80;;
68938;SDS011;59064;45.294;11.816;2023-07-16T12:00:10;8.80;;;4.80;;
68938;SDS011;59064;45.294;11.816;2023-07-16T12:02:37;11.30;;;5.10;;
68938;SDS011;59064;45.294;11.816;2023-07-16T12:05:03;8.20;;;4.40;;
68938;SDS011;59064;45.294;11.816;2023-07-16T12:07:36;11.20;;;4.90;;
68938;SDS011;59064;45.294;11.816;2023-07-16T12:10:04;7.10;;;4.30;;
68938;SDS011;59064;45.294;11.816;2023-07-16T12:12:32;7.60;;;4.10;;
68938;SDS011;59064;45.294;11.816;2023-07-16T12:14:58;9.60;;;4.50;;
68938;SDS011;59064;45.294;11.816;2023-07-16T12:17:24;9.10;;;4.90;;
68938;SDS011;59064;45.294;11.816;2023-07-16T12:19:50;10.30;;;4.70;;
68938;SDS011;59064;45.294;11.816;2023-07-16T12:22:17;8.60;;;4.60;;
68938;SDS011;59064;45.294;11.816;2023-07-16T12:24:43;8.30;;;4.40;;
68938;SDS011;59064;45.294;11.816;2023-07-16T12:27:09;13.10;;;4.20;;
68938;SDS011;59064;45.294;11.816;2023-07-16T12:29:34;8.40;;;4.50;;
68938;SDS011;59064;45.294;11.816;2023-07-16T12:32:00;8.70;;;4.30;;
68938;SDS011;59064;45.294;11.816;2023-07-16T12:34:26;9.40;;;4.80;;
68938;SDS011;59064;45.294;11.816;2023-07-16T12:36:51;9.40;;;4.60;;
68938;SDS011;59064;45.294;11.816;2023-07-16T12:39:18;10.40;;;4.60;;
68938;SDS011;59064;45.294;11.816;2023-07-16T12:41:44;7.10;;;4.20;;
68938;SDS011;59064;45.294;11.816;2023-07-16T12:44:09;10.70;;;4.70;;
68938;SDS011;59064;45.294;11.816;2023-07-16T12:46:35;8.60;;;4.40;;
68938;SDS011;59064;45.294;11.816;2023-07-16T12:49:00;9.30;;;4.40;;
68938;SDS011;59064;45.294;11.816;2023-07-16T12:51:26;8.70;;;4.30;;
68938;SDS011;59064;45.294;11.816;2023-07-16T12:53:52;8.90;;;4.60;;
68938;SDS011;59064;45.294;11.816;2023-07-16T12:56:17;7.80;;;4.20;;
68938;SDS011;59064;45.294;11.816;2023-07-16T12:58:43;8.30;;;4.80;;
68938;SDS011;59064;45.294;11.816;2023-07-16T13:01:09;10.60;;;4.90;;
68938;SDS011;59064;45.294;11.816;2023-07-16T13:03:35;8.30;;;4.80;;
68938;SDS011;59064;45.294;11.816;2023-07-16T13:06:01;10.30;;;5.40;;
68938;SDS011;59064;45.294;11.816;2023-07-16T13:08:29;7.70;;;4.50;;
68938;SDS011;59064;45.294;11.816;2023-07-16T13:10:54;7.50;;;4.20;;
68938;SDS011;59064;45.294;11.816;2023-07-16T13:13:20;11.00;;;4.90;;
68938;SDS011;59064;45.294;11.816;2023-07-16T13:15:46;9.00;;;4.50;;
68938;SDS011;59064;45.294;11.816;2023-07-16T13:18:12;7.90;;;4.10;;
68938;SDS011;59064;45.294;11.816;2023-07-16T13:20:38;8.80;;;4.40;;
68938;SDS011;59064;45.294;11.816;2023-07-16T13:23:04;7.80;;;4.50;;
68938;SDS011;59064;45.294;11.816;2023-07-16T13:25:30;10.10;;;4.90;;
68938;SDS011;59064;45.294;11.816;2023-07-16T13:27:56;9.70;;;4.10;;
68938;SDS011;59064;45.294;11.816;2023-07-16T13:30:22;9.60;;;4.80;;
68938;SDS011;59064;45.294;11.816;2023-07-16T13:32:48;9.70;;;4.70;;
68938;SDS011;59064;45.294;11.816;2023-07-16T13:35:17;6.10;;;3.90;;
68938;SDS011;59064;45.294;11.816;2023-07-16T13:37:43;9.60;;;4.50;;
68938;SDS011;59064;45.294;11.816;2023-07-16T13:40:09;7.80;;;4.70;;
68938;SDS011;59064;45.294;11.816;2023-07-16T13:42:35;10.10;;;4.90;;
68938;SDS011;59064;45.294;11.816;2023-07-16T13:45:00;10.40;;;4.40;;
68938;SDS011;59064;45.294;11.816;2023-07-16T13:47:26;11.00;;;4.00;;
68938;SDS011;59064;45.294;11.816;2023-07-16T13:49:52;8.30;;;4.60;;
68938;SDS011;59064;45.294;11.816;2023-07-16T13:52:17;7.90;;;4.50;;
68938;SDS011;59064;45.294;11.816;2023-07-16T13:54:43;8.30;;;4.60;;
68938;SDS011;59064;45.294;11.816;2023-07-16T13:57:09;7.00;;;4.30;;
68938;SDS011;59064;45.294;11.816;2023-07-16T13:59:34;11.20;;;5.00;;
68938;SDS011;59064;45.294;11.816;2023-07-16T14:02:01;8.60;;;4.80;;
68938;SDS011;59064;45.294;11.816;2023-07-16T14:04:29;12.50;;;4.80;;
68938;SDS011;59064;45.294;11.816;2023-07-16T14:06:55;9.20;;;4.60;;
68938;SDS011;59064;45.294;11.816;2023-07-16T14:09:21;8.70;;;4.40;;
68938;SDS011;59064;45.294;11.816;2023-07-16T14:11:47;9.30;;;4.80;;
68938;SDS011;59064;45.294;11.816;2023-07-16T14:14:14;11.80;;;4.40;;
68938;SDS011;59064;45.294;11.816;2023-07-16T14:16:41;8.80;;;4.50;;
68938;SDS011;59064;45.294;11.816;2023-07-16T14:19:06;8.20;;;4.40;;
68938;SDS011;59064;45.294;11.816;2023-07-16T14:21:32;7.90;;;4.60;;
68938;SDS011;59064;45.294;11.816;2023-07-16T14:23:57;8.20;;;4.60;;
68938;SDS011;59064;45.294;11.816;2023-07-16T14:26:23;10.90;;;4.90;;